Time;durP1;ratioP1;P1;durP2;ratioP2;P2;SDS_P1;SDS_P2;PMS_P1;PMS_P2;Temp;Humidity;BMP_temperature;BMP_pressure;BME280_temperature;BME280_humidity;BME280_pressure;Samples;Min_cycle;Max_cycle;Signal;HPM_P1;HPM_P2
2023/09/22 00:01:55;;;;;;;2.30;1.58;;;;;;;14.09;94.26;99819.97;7397738;19;20294;-65
2023/09/22 00:04:27;;;;;;;3.30;1.50;;;;;;;14.09;93.80;99822.69;7395811;19;19918;-64
2023/09/22 00:06:56;;;;;;;3.35;1.60;;;;;;;14.10;94.19;99826.22;7402262;19;20350;-64
2023/09/22 00:09:26;;;;;;;4.53;1.65;;;;;;;14.12;94.14;99823.25;7400931;19;19956;-64
2023/09/22 00:11:56;;;;;;;2.25;1.40;;;;;;;14.13;94.33;99823.03;7399944;19;19962;-64
2023/09/22 00:14:25;;;;;;;3.03;1.77;;;;;;;14.14;94.71;99822.00;7402296;19;19915;-64
2023/09/22 00:16:58;;;;;;;2.08;1.42;;;;;;;14.16;94.34;99822.59;7403142;19;19922;-64
2023/09/22 00:19:31;;;;;;;1.95;1.60;;;;;;;14.18;94.01;99815.06;7400984;19;20312;-64
2023/09/22 00:22:21;;;;;;;2.67;1.13;;;;;;;14.19;94.12;99814.03;7401562;19;19922;-64
2023/09/22 00:24:50;;;;;;;4.15;1.40;;;;;;;14.20;94.39;99817.53;7398325;19;19922;-61
2023/09/22 00:27:19;;;;;;;2.00;1.60;;;;;;;14.22;94.03;99815.44;7402003;19;19919;-61
2023/09/22 00:29:48;;;;;;;3.90;1.67;;;;;;;14.23;94.25;99809.81;7400906;19;19926;-61
2023/09/22 00:32:17;;;;;;;2.55;1.48;;;;;;;14.21;93.97;99817.31;7402256;19;20633;-61
2023/09/22 00:34:48;;;;;;;1.60;1.30;;;;;;;14.22;94.14;99832.53;7399546;19;19946;-61
2023/09/22 00:37:18;;;;;;;4.15;1.50;;;;;;;14.22;94.60;99826.28;7402341;19;19946;-61
2023/09/22 00:40:09;;;;;;;2.22;1.55;;;;;;;14.24;94.50;99827.69;7399693;19;19919;-61
2023/09/22 00:42:38;;;;;;;5.65;1.20;;;;;;;14.26;94.53;99827.47;7401440;19;19926;-62
2023/09/22 00:45:07;;;;;;;1.80;1.30;;;;;;;14.28;94.07;99831.59;7401148;19;20253;-62
2023/09/22 00:47:56;;;;;;;1.85;1.25;;;;;;;14.29;94.33;99829.72;7399755;19;19972;-62
2023/09/22 00:50:27;;;;;;;3.08;1.33;;;;;;;14.32;94.51;99827.41;7401886;19;19922;-62
2023/09/22 00:52:56;;;;;;;2.58;1.27;;;;;;;14.33;94.40;99833.63;7401724;19;20423;-62
2023/09/22 00:55:25;;;;;;;2.03;1.20;;;;;;;14.32;93.92;99834.72;7401868;19;20262;-62
2023/09/22 00:57:54;;;;;;;3.55;1.48;;;;;;;14.31;93.94;99833.88;7400280;19;20323;-62
2023/09/22 01:00:47;;;;;;;1.48;1.20;;;;;;;14.32;94.70;99832.00;7398945;19;19982;-62
2023/09/22 01:03:16;;;;;;;1.67;1.10;;;;;;;14.32;94.59;99824.72;7398654;19;19933;-62
2023/09/22 01:05:48;;;;;;;1.40;0.85;;;;;;;14.33;94.26;99831.75;7401617;19;20002;-62
2023/09/22 01:08:37;;;;;;;2.00;1.25;;;;;;;14.31;94.19;99825.75;7399714;19;19974;-61
2023/09/22 01:11:06;;;;;;;1.45;1.13;;;;;;;14.32;94.35;99822.00;7400600;19;19940;-62
2023/09/22 01:13:34;;;;;;;3.72;1.40;;;;;;;14.31;94.54;99817.63;7399376;19;19951;-62
2023/09/22 01:16:23;;;;;;;1.77;1.25;;;;;;;14.32;94.71;99821.16;7400107;19;19958;-61
2023/09/22 01:18:52;;;;;;;2.75;1.67;;;;;;;14.34;94.79;99829.88;7400098;19;19919;-62
2023/09/22 01:21:29;;;;;;;3.13;1.25;;;;;;;14.35;94.56;99834.25;7399573;19;19947;-62
2023/09/22 01:24:17;;;;;;;3.03;1.67;;;;;;;14.35;95.05;99832.41;7400048;19;19918;-62
2023/09/22 01:26:46;;;;;;;1.75;1.33;;;;;;;14.36;95.25;99831.38;7401627;19;19926;-62
2023/09/22 01:29:14;;;;;;;3.20;1.98;;;;;;;14.38;95.11;99834.66;7400076;19;19919;-61
2023/09/22 01:31:44;;;;;;;5.30;2.45;;;;;;;14.38;95.37;99837.38;7401105;19;19919;-62
2023/09/22 01:34:15;;;;;;;4.47;2.83;;;;;;;14.35;95.40;99839.69;7398415;19;19955;-61
2023/09/22 01:37:07;;;;;;;4.10;2.40;;;;;;;14.32;95.65;99838.25;7399100;19;19963;-62
2023/09/22 01:39:57;;;;;;;4.88;3.08;;;;;;;14.30;96.22;99832.22;7398865;19;19926;-61
2023/09/22 01:42:26;;;;;;;5.38;2.80;;;;;;;14.28;96.10;99831.59;7400712;19;19958;-61
2023/09/22 01:44:55;;;;;;;5.78;3.22;;;;;;;14.29;96.68;99835.97;7399725;19;20322;-61
2023/09/22 01:47:24;;;;;;;5.13;2.80;;;;;;;14.30;96.32;99829.50;7400199;19;19923;-64
2023/09/22 01:49:52;;;;;;;5.90;3.40;;;;;;;14.30;96.70;99832.22;7401226;19;19927;-64
2023/09/22 01:52:24;;;;;;;5.88;3.92;;;;;;;14.33;96.55;99830.94;7401406;19;19922;-64
2023/09/22 01:55:13;;;;;;;6.35;3.40;;;;;;;14.33;97.20;99831.75;7399064;19;19937;-64
2023/09/22 01:57:41;;;;;;;7.13;4.53;;;;;;;14.36;97.19;99831.38;7399618;19;19926;-64
2023/09/22 02:00:11;;;;;;;8.30;4.32;;;;;;;14.35;97.22;99831.53;7397260;19;20329;-64
2023/09/22 02:02:42;;;;;;;8.20;5.18;;;;;;;14.34;96.97;99814.47;7397747;19;19922;-64
2023/09/22 02:05:12;;;;;;;8.38;4.88;;;;;;;14.34;97.33;99828.00;7399257;19;19929;-64
2023/09/22 02:07:43;;;;;;;8.48;4.93;;;;;;;14.34;97.27;99825.28;7399254;19;19922;-64
2023/09/22 02:10:13;;;;;;;9.38;5.22;;;;;;;14.34;97.51;99824.47;7399645;19;20420;-64
2023/09/22 02:12:43;;;;;;;9.50;5.45;;;;;;;14.36;97.99;99820.53;7400313;19;19922;-64
2023/09/22 02:15:13;;;;;;;9.95;5.82;;;;;;;14.37;98.00;99827.56;7398658;19;19930;-64
2023/09/22 02:17:43;;;;;;;9.90;6.07;;;;;;;14.37;97.52;99816.75;7399040;19;20273;-64
2023/09/22 02:20:32;;;;;;;10.05;6.57;;;;;;;14.36;97.92;99820.53;7397252;19;19919;-64
2023/09/22 02:23:07;;;;;;;12.65;6.75;;;;;;;14.36;97.81;99806.97;7400691;19;20551;-64
2023/09/22 02:25:36;;;;;;;13.45;6.90;;;;;;;14.35;97.80;99815.28;7398686;19;20266;-64
2023/09/22 02:28:05;;;;;;;10.50;6.65;;;;;;;14.31;97.92;99812.22;7399976;19;19943;-64
2023/09/22 02:30:37;;;;;;;10.45;6.65;;;;;;;14.30;97.88;99823.25;7399244;19;19956;-64
2023/09/22 02:33:07;;;;;;;10.65;6.93;;;;;;;14.30;97.75;99817.84;7397371;19;19918;-64
2023/09/22 02:35:56;;;;;;;12.75;6.90;;;;;;;14.28;97.88;99815.34;7396994;19;19919;-64
2023/09/22 02:38:47;;;;;;;10.73;6.40;;;;;;;14.28;97.93;99818.06;7397385;19;19991;-64
2023/09/22 02:41:17;;;;;;;13.00;6.65;;;;;;;14.31;97.49;99822.22;7399676;19;19935;-64
2023/09/22 02:44:08;;;;;;;10.80;6.78;;;;;;;14.30;97.42;99832.22;7397084;19;19982;-64
2023/09/22 02:46:57;;;;;;;10.80;6.95;;;;;;;14.30;97.88;99823.25;7397648;19;20344;-64
2023/09/22 02:49:26;;;;;;;11.43;6.97;;;;;;;14.28;97.69;99826.19;7398866;19;19922;-64
2023/09/22 02:52:15;;;;;;;10.48;6.68;;;;;;;14.25;97.93;99823.94;7396829;19;20404;-64
2023/09/22 02:54:46;;;;;;;10.73;7.25;;;;;;;14.23;97.85;99826.06;7399771;19;19935;-63
2023/09/22 02:57:15;;;;;;;13.00;7.90;;;;;;;14.19;97.59;99824.88;7399664;19;19947;-64
2023/09/22 02:59:43;;;;;;;9.85;6.65;;;;;;;14.16;98.14;99827.16;7399081;19;19927;-64
2023/09/22 03:02:34;;;;;;;12.07;7.95;;;;;;;14.10;98.08;99831.63;7396943;19;19923;-64
2023/09/22 03:05:06;;;;;;;12.25;7.47;;;;;;;14.09;97.88;99840.81;7398084;19;20341;-64
2023/09/22 03:07:35;;;;;;;10.73;6.93;;;;;;;14.07;98.30;99842.91;7398828;19;19923;-64
2023/09/22 03:10:07;;;;;;;14.52;8.27;;;;;;;14.06;98.29;99849.38;7399125;19;19919;-64
2023/09/22 03:12:36;;;;;;;14.23;8.63;;;;;;;14.04;98.38;99856.88;7397744;19;20002;-65
2023/09/22 03:15:05;;;;;;;12.00;7.93;;;;;;;14.01;98.47;99858.19;7399170;19;19940;-63
2023/09/22 03:17:34;;;;;;;11.30;7.13;;;;;;;14.02;98.16;99861.72;7398047;19;19935;-64
2023/09/22 03:20:23;;;;;;;13.55;7.68;;;;;;;14.04;98.64;99865.00;7397330;19;19986;-64
2023/09/22 03:22:51;;;;;;;14.73;8.75;;;;;;;14.06;99.04;99866.44;7398680;19;19919;-64
2023/09/22 03:25:44;;;;;;;14.70;8.32;;;;;;;14.09;98.75;99859.75;7396851;19;19921;-64
2023/09/22 03:28:13;;;;;;;15.55;8.48;;;;;;;14.11;98.37;99864.97;7397231;19;20426;-63
2023/09/22 03:30:42;;;;;;;14.38;7.30;;;;;;;14.11;98.09;99865.75;7398982;19;20333;-64
2023/09/22 03:33:11;;;;;;;14.57;8.05;;;;;;;14.12;97.96;99866.59;7395402;19;19925;-62
2023/09/22 03:35:40;;;;;;;15.93;9.63;;;;;;;14.13;97.63;99874.50;7397210;19;19922;-62
2023/09/22 03:38:29;;;;;;;11.77;7.80;;;;;;;14.12;97.81;99880.97;7393435;19;19926;-62
2023/09/22 03:41:01;;;;;;;12.50;7.63;;;;;;;14.13;97.38;99877.22;7397747;19;19951;-62
2023/09/22 03:43:29;;;;;;;17.73;8.50;;;;;;;14.13;97.67;99876.38;7396111;19;19924;-62
2023/09/22 03:45:58;;;;;;;14.60;7.82;;;;;;;14.14;97.65;99865.34;7397910;19;20368;-62
2023/09/22 03:48:27;;;;;;;11.77;7.15;;;;;;;14.13;97.41;99858.25;7396996;19;19918;-62
2023/09/22 03:51:15;;;;;;;14.15;7.90;;;;;;;14.13;97.39;99860.13;7393894;19;20250;-63
2023/09/22 03:53:44;;;;;;;13.57;7.82;;;;;;;14.12;97.52;99863.88;7396862;19;19922;-62
2023/09/22 03:56:15;;;;;;;12.13;7.50;;;;;;;14.10;97.56;99858.72;7396283;19;19937;-62
2023/09/22 03:59:04;;;;;;;15.43;7.60;;;;;;;14.07;97.03;99849.13;7395407;19;19997;-63
2023/09/22 04:01:33;;;;;;;14.18;8.35;;;;;;;14.09;96.78;99854.34;7393774;19;19922;-63
2023/09/22 04:04:03;;;;;;;13.68;7.72;;;;;;;14.08;96.74;99852.69;7392479;19;19931;-63
2023/09/22 04:06:32;;;;;;;14.10;8.52;;;;;;;14.06;96.80;99858.31;7397339;19;20344;-63
2023/09/22 04:09:21;;;;;;;14.20;7.50;;;;;;;14.04;97.38;99865.00;7395645;19;20475;-63
2023/09/22 04:11:52;;;;;;;12.90;7.40;;;;;;;14.02;97.06;99854.41;7394920;19;19938;-63
2023/09/22 04:14:40;;;;;;;18.90;8.80;;;;;;;14.01;97.04;99857.34;7394928;19;20404;-63
2023/09/22 04:17:10;;;;;;;13.73;7.90;;;;;;;14.00;96.77;99864.63;7396684;19;19922;-64
2023/09/22 04:19:59;;;;;;;16.88;8.90;;;;;;;13.99;96.66;99862.97;7394067;19;19929;-63
2023/09/22 04:22:28;;;;;;;16.08;9.63;;;;;;;13.99;96.71;99856.72;7395679;19;19922;-62
2023/09/22 04:25:00;;;;;;;15.30;8.00;;;;;;;13.94;96.64;99870.09;7396664;19;19919;-62
2023/09/22 04:27:34;;;;;;;16.63;8.32;;;;;;;13.93;96.94;99871.19;7396547;19;19919;-62
2023/09/22 04:30:24;;;;;;;17.05;9.13;;;;;;;13.90;96.95;99872.44;7395058;19;20239;-62
2023/09/22 04:32:54;;;;;;;14.82;8.48;;;;;;;13.90;97.20;99877.03;7390695;19;19922;-63
2023/09/22 04:35:43;;;;;;;14.05;7.90;;;;;;;13.88;97.10;99879.13;7392737;19;20283;-62
2023/09/22 04:38:13;;;;;;;12.93;8.52;;;;;;;13.88;96.79;99877.25;7396037;19;19926;-63
2023/09/22 04:40:43;;;;;;;13.95;8.18;;;;;;;13.88;96.82;99888.09;7393656;19;20271;-62
2023/09/22 04:43:35;;;;;;;14.90;8.40;;;;;;;13.87;96.74;99891.00;7393590;19;19923;-62
2023/09/22 04:46:05;;;;;;;13.63;7.68;;;;;;;13.86;96.23;99894.75;7395199;19;19974;-62
2023/09/22 04:48:34;;;;;;;13.20;7.53;;;;;;;13.87;96.16;99891.00;7395332;19;19943;-62
2023/09/22 04:51:04;;;;;;;13.68;8.43;;;;;;;13.87;95.92;99894.56;7400443;19;19918;-62
2023/09/22 04:53:33;;;;;;;13.15;7.88;;;;;;;13.87;96.15;99896.44;7401726;19;19918;-64
2023/09/22 04:56:22;;;;;;;17.35;8.20;;;;;;;13.86;95.86;99884.75;7399476;19;19927;-64
2023/09/22 04:58:56;;;;;;;11.98;6.78;;;;;;;13.84;95.92;99902.28;7398598;19;19919;-64
2023/09/22 05:01:26;;;;;;;13.07;7.88;;;;;;;13.84;96.14;99902.28;7391788;19;19927;-64
2023/09/22 05:04:15;;;;;;;13.75;8.40;;;;;;;13.82;96.34;99916.03;7389676;19;19926;-64
2023/09/22 05:06:44;;;;;;;14.90;8.02;;;;;;;13.81;96.35;99919.78;7397396;19;19922;-64
2023/09/22 05:09:32;;;;;;;;;;;;;;;13.71;97.17;99929.47;7397684;19;20005;-64
2023/09/22 05:12:21;;;;;;;13.55;7.88;;;;;;;13.80;96.17;99941.69;7396304;19;19926;-64
2023/09/22 05:14:55;;;;;;;14.00;8.07;;;;;;;13.81;96.00;99937.91;7394573;19;19933;-64
2023/09/22 05:17:24;;;;;;;18.10;8.32;;;;;;;13.79;96.03;99938.16;7393719;19;20019;-64
2023/09/22 05:19:53;;;;;;;13.68;8.63;;;;;;;13.81;95.90;99929.78;7395753;19;19924;-64
2023/09/22 05:22:22;;;;;;;15.27;8.95;;;;;;;13.78;95.35;99933.78;7395686;19;19933;-64
2023/09/22 05:24:51;;;;;;;15.80;8.13;;;;;;;13.75;95.09;99939.63;7393962;19;20630;-63
2023/09/22 05:27:40;;;;;;;14.77;8.65;;;;;;;13.74;95.14;99945.25;7389795;19;19934;-63
2023/09/22 05:30:14;;;;;;;15.55;8.73;;;;;;;13.72;95.32;99941.97;7397024;19;20257;-63
2023/09/22 05:32:44;;;;;;;14.40;8.23;;;;;;;13.71;95.33;99940.31;7390163;19;20349;-63
2023/09/22 05:35:32;;;;;;;18.35;9.93;;;;;;;13.70;95.01;99942.16;7394383;19;19922;-63
2023/09/22 05:38:22;;;;;;;16.48;9.27;;;;;;;13.67;94.85;99949.91;7398130;19;19949;-63
2023/09/22 05:41:11;;;;;;;;;;;;;;;13.50;94.63;99955.81;7402652;19;19928;-63
2023/09/22 05:43:40;;;;;;;17.08;8.85;;;;;;;13.60;94.32;99958.06;7397882;19;19950;-63
2023/09/22 05:46:11;;;;;;;18.50;8.98;;;;;;;13.59;94.37;99973.47;7397222;19;19922;-63
2023/09/22 05:48:40;;;;;;;16.13;9.10;;;;;;;13.56;94.03;99973.91;7393971;19;19927;-63
2023/09/22 05:51:09;;;;;;;16.50;10.23;;;;;;;13.55;94.52;99985.78;7397024;19;19978;-63
2023/09/22 05:53:37;;;;;;;21.38;10.38;;;;;;;13.57;94.61;99991.81;7397201;19;19922;-63
2023/09/22 05:56:26;;;;;;;18.20;9.68;;;;;;;13.58;94.30;99987.22;7396726;19;19925;-63
2023/09/22 05:58:55;;;;;;;17.85;9.80;;;;;;;13.58;94.79;99985.34;7394394;19;19977;-63
2023/09/22 06:01:47;;;;;;;17.38;10.27;;;;;;;13.59;94.62;99991.59;7396605;19;19926;-63
2023/09/22 06:04:16;;;;;;;19.77;9.60;;;;;;;13.58;94.52;99987.22;7398557;19;19990;-63
2023/09/22 06:07:12;;;;;;;18.60;9.82;;;;;;;13.56;94.88;99987.44;7394967;19;20340;-63
2023/09/22 06:09:41;;;;;;;19.98;9.77;;;;;;;13.55;94.84;99984.94;7392320;19;19923;-63
2023/09/22 06:12:09;;;;;;;17.55;10.00;;;;;;;13.56;95.02;99986.59;7396808;19;20308;-64
2023/09/22 06:14:39;;;;;;;20.88;11.55;;;;;;;13.55;94.80;99983.06;7400281;19;19930;-63
2023/09/22 06:17:10;;;;;;;20.88;10.65;;;;;;;13.57;94.55;99988.28;7400070;19;20264;-64
2023/09/22 06:19:39;;;;;;;20.55;11.50;;;;;;;13.56;94.94;100000.13;7395911;19;19926;-64
2023/09/22 06:22:10;;;;;;;22.50;11.98;;;;;;;13.53;94.67;100004.13;7396601;19;19925;-64
2023/09/22 06:24:38;;;;;;;18.65;11.52;;;;;;;13.52;94.51;100007.88;7400131;19;19922;-63
2023/09/22 06:27:07;;;;;;;22.20;12.45;;;;;;;13.51;94.51;99999.97;7399660;19;19929;-64
2023/09/22 06:29:36;;;;;;;21.58;11.55;;;;;;;13.51;94.64;100008.91;7400896;19;19915;-63
2023/09/22 06:32:05;;;;;;;22.10;11.07;;;;;;;13.51;95.13;100006.19;7400162;19;19934;-63
2023/09/22 06:34:36;;;;;;;26.48;11.43;;;;;;;13.56;94.70;100011.78;7399816;19;19922;-63
2023/09/22 06:37:25;;;;;;;22.58;11.75;;;;;;;13.57;94.62;100018.88;7397890;19;20574;-63
2023/09/22 06:40:16;;;;;;;18.52;10.68;;;;;;;13.62;94.20;100016.34;7398794;19;19919;-63
2023/09/22 06:42:45;;;;;;;20.92;11.18;;;;;;;13.66;93.56;100019.44;7400793;19;19922;-63
2023/09/22 06:45:15;;;;;;;20.45;10.82;;;;;;;13.69;93.60;100013.59;7400035;19;19934;-63
2023/09/22 06:47:45;;;;;;;18.40;10.52;;;;;;;13.71;93.18;100011.50;7401375;19;19915;-65
2023/09/22 06:50:21;;;;;;;20.20;11.88;;;;;;;13.71;93.27;100011.50;7399087;19;19922;-64
2023/09/22 06:53:11;;;;;;;21.98;10.95;;;;;;;13.72;93.03;100017.75;7399273;19;20375;-65
2023/09/22 06:55:40;;;;;;;20.67;10.27;;;;;;;13.75;92.74;100020.00;7399428;19;19919;-64
2023/09/22 06:58:29;;;;;;;16.00;9.50;;;;;;;13.73;93.23;100022.09;7398064;19;19918;-63
2023/09/22 07:00:58;;;;;;;18.33;9.98;;;;;;;13.77;92.91;100021.44;7399327;19;19923;-63
2023/09/22 07:03:27;;;;;;;16.50;9.45;;;;;;;13.83;93.08;100027.88;7400382;19;19927;-64
2023/09/22 07:06:19;;;;;;;16.75;9.30;;;;;;;13.79;92.54;100027.47;7397172;19;20364;-64
2023/09/22 07:08:50;;;;;;;14.55;8.52;;;;;;;13.79;92.50;100024.78;7394794;19;19938;-63
2023/09/22 07:11:19;;;;;;;16.92;8.20;;;;;;;13.79;92.72;100027.47;7395434;19;19947;-63
2023/09/22 07:14:07;;;;;;;;;;;;;;;13.69;92.63;100027.13;7397399;19;19933;-64
2023/09/22 07:16:36;;;;;;;15.35;8.60;;;;;;;13.80;92.47;100029.16;7399385;19;19961;-63
2023/09/22 07:19:05;;;;;;;13.07;7.57;;;;;;;13.84;92.43;100024.97;7398885;19;19929;-64
2023/09/22 07:21:37;;;;;;;12.38;8.13;;;;;;;13.85;92.29;100029.31;7398462;19;19919;-63
2023/09/22 07:24:06;;;;;;;15.57;7.82;;;;;;;13.86;92.06;100032.84;7398120;19;19922;-63
2023/09/22 07:26:34;;;;;;;15.75;8.93;;;;;;;13.88;92.07;100038.88;7397569;19;19951;-64
2023/09/22 07:29:23;;;;;;;13.65;7.60;;;;;;;13.90;92.42;100037.59;7398051;19;20315;-64
2023/09/22 07:31:52;;;;;;;13.80;7.93;;;;;;;13.89;92.18;100048.66;7399230;19;19947;-63
2023/09/22 07:34:21;;;;;;;13.88;7.57;;;;;;;13.89;91.74;100046.75;7396018;19;19959;-63
2023/09/22 07:36:53;;;;;;;12.35;7.03;;;;;;;13.94;91.19;100048.81;7397506;19;20321;-61
2023/09/22 07:39:22;;;;;;;;;;;;;;;13.84;91.15;100049.31;7387577;19;19926;-63
2023/09/22 07:41:51;;;;;;;15.20;7.28;;;;;;;13.96;91.47;100058.41;7387479;19;19926;-63
2023/09/22 07:44:21;;;;;;;14.52;7.15;;;;;;;14.00;91.26;100058.78;7390520;19;19957;-63
2023/09/22 07:46:50;;;;;;;12.50;6.65;;;;;;;14.04;91.00;100068.13;7390226;19;19926;-62
2023/09/22 07:49:40;;;;;;;18.75;8.98;;;;;;;14.03;91.14;100080.84;7385328;19;19923;-63
2023/09/22 07:52:12;;;;;;;10.82;6.03;;;;;;;14.05;90.54;100073.34;7387381;19;19919;-63
2023/09/22 07:54:41;;;;;;;11.13;6.28;;;;;;;14.07;90.89;100089.34;7391196;19;19922;-62
2023/09/22 07:57:10;;;;;;;10.40;6.75;;;;;;;14.04;90.64;100095.22;7386348;19;20310;-63
2023/09/22 07:59:39;;;;;;;10.13;6.32;;;;;;;14.01;90.25;100087.53;7385445;19;19926;-62
2023/09/22 08:02:08;;;;;;;12.68;5.90;;;;;;;13.98;90.23;100090.66;7388872;19;19918;-63
2023/09/22 08:04:57;;;;;;;13.07;6.20;;;;;;;13.96;90.55;100092.78;7391382;19;19927;-63
2023/09/22 08:07:49;;;;;;;12.00;5.43;;;;;;;13.93;90.08;100093.22;7386351;19;19978;-63
2023/09/22 08:10:22;;;;;;;13.45;6.15;;;;;;;13.90;90.28;100089.03;7392835;19;19926;-62
2023/09/22 08:12:57;;;;;;;11.93;6.28;;;;;;;13.90;90.63;100088.22;7394065;19;19922;-63
2023/09/22 08:15:26;;;;;;;12.10;5.80;;;;;;;13.91;90.74;100087.16;7393248;19;19922;-63
2023/09/22 08:17:56;;;;;;;15.00;8.20;;;;;;;13.95;90.56;100088.41;7394353;19;20022;-62
2023/09/22 08:20:25;;;;;;;12.98;6.63;;;;;;;13.95;90.02;100093.81;7391030;19;19922;-62
2023/09/22 08:22:56;;;;;;;15.70;7.15;;;;;;;13.96;90.24;100095.47;7381775;19;19923;-62
2023/09/22 08:25:24;;;;;;;16.98;8.43;;;;;;;13.96;90.23;100114.44;7384045;19;19934;-62
2023/09/22 08:27:54;;;;;;;15.07;8.43;;;;;;;13.97;90.37;100107.97;7387892;19;19919;-62
2023/09/22 08:30:23;;;;;;;17.65;8.90;;;;;;;14.00;91.12;100107.53;7388169;19;19918;-63
2023/09/22 08:32:53;;;;;;;15.18;9.13;;;;;;;14.01;90.20;100114.63;7392967;19;19953;-63
2023/09/22 08:35:22;;;;;;;12.10;7.07;;;;;;;14.02;90.60;100103.53;7398509;19;19926;-63
2023/09/22 08:37:50;;;;;;;15.50;9.20;;;;;;;14.07;90.30;100113.72;7400488;19;21083;-63
2023/09/22 08:40:22;;;;;;;15.82;9.43;;;;;;;14.22;90.16;100116.16;7399369;19;19926;-63
2023/09/22 08:42:52;;;;;;;10.15;6.15;;;;;;;14.34;89.35;100117.09;7401461;19;19927;-62
2023/09/22 08:45:21;;;;;;;11.52;7.13;;;;;;;14.43;89.30;100113.94;7402264;19;19937;-63
2023/09/22 08:47:51;;;;;;;16.58;5.95;;;;;;;14.54;89.03;100123.22;7396572;19;19922;-63
2023/09/22 08:50:22;;;;;;;11.18;5.65;;;;;;;14.65;88.86;100129.81;7400577;19;19918;-63
2023/09/22 08:52:52;;;;;;;9.98;5.05;;;;;;;14.71;88.18;100139.78;7402461;19;19919;-63
2023/09/22 08:55:24;;;;;;;9.35;4.70;;;;;;;14.71;87.91;100142.50;7398182;19;19930;-63
2023/09/22 08:57:53;;;;;;;7.15;4.60;;;;;;;14.68;88.24;100141.03;7401393;19;19930;-63
2023/09/22 09:00:26;;;;;;;6.72;4.78;;;;;;;14.68;88.28;100142.91;7398444;19;19936;-63
2023/09/22 09:02:58;;;;;;;9.75;4.82;;;;;;;14.69;88.42;100129.16;7396695;19;19930;-63
2023/09/22 09:05:29;;;;;;;11.20;5.55;;;;;;;14.73;87.30;100133.06;7399584;19;19918;-64
2023/09/22 09:07:59;;;;;;;;;;;;;;;14.73;87.71;100134.94;7401351;19;19970;-63
2023/09/22 09:10:32;;;;;;;9.40;4.32;;;;;;;14.86;87.38;100140.25;7402096;19;19919;-64
2023/09/22 09:13:06;;;;;;;8.50;3.92;;;;;;;14.89;87.21;100145.22;7399304;19;19922;-63
2023/09/22 09:15:45;;;;;;;6.07;3.83;;;;;;;14.88;85.08;100138.16;7399593;19;20341;-63
2023/09/22 09:18:16;;;;;;;12.27;3.60;;;;;;;14.91;86.00;100143.97;7400984;19;19919;-63
2023/09/22 09:20:46;;;;;;;4.60;2.25;;;;;;;14.91;84.74;100138.53;7400746;19;19923;-65
2023/09/22 09:23:19;;;;;;;5.80;2.92;;;;;;;14.94;84.81;100143.50;7400840;19;19919;-64
2023/09/22 09:25:54;;;;;;;5.10;2.30;;;;;;;14.97;83.81;100147.69;7401429;19;19929;-64
2023/09/22 09:28:24;;;;;;;4.35;2.20;;;;;;;14.98;83.20;100146.59;7400747;19;19918;-64
2023/09/22 09:30:54;;;;;;;4.45;2.05;;;;;;;15.00;83.47;100147.22;7399816;19;20333;-64
2023/09/22 09:33:24;;;;;;;9.52;2.03;;;;;;;15.00;83.21;100147.22;7396406;19;19919;-64
2023/09/22 09:35:50;;;;;;;7.40;2.53;;;;;;;15.02;83.19;100149.69;7398126;19;19923;-66
2023/09/22 09:38:45;;;;;;;3.95;2.30;;;;;;;15.05;82.66;100152.81;7399505;19;19922;-65
2023/09/22 09:41:22;;;;;;;3.65;2.40;;;;;;;15.06;82.68;100150.94;7396846;19;20034;-63
2023/09/22 09:43:53;;;;;;;3.55;2.22;;;;;;;15.13;83.44;100155.25;7399852;19;19918;-63
2023/09/22 09:46:23;;;;;;;7.05;2.08;;;;;;;15.19;82.91;100150.78;7397439;19;19939;-63
2023/09/22 09:48:55;;;;;;;3.40;1.77;;;;;;;15.30;82.82;100147.34;7400328;19;19927;-62
2023/09/22 09:51:25;;;;;;;;;;;;;;;15.35;81.67;100151.03;7402664;19;19922;-62
2023/09/22 09:53:59;;;;;;;4.55;2.20;;;;;;;15.71;82.09;100143.94;7397618;19;19952;-62
2023/09/22 09:56:30;;;;;;;6.43;2.20;;;;;;;15.99;80.32;100151.53;7399341;19;19926;-63
2023/09/22 09:59:02;;;;;;;2.88;1.90;;;;;;;16.04;79.95;100140.81;7399607;19;20356;-64
2023/09/22 10:01:33;;;;;;;2.88;1.90;;;;;;;16.10;79.38;100143.44;7398947;19;20353;-64
2023/09/22 10:04:05;;;;;;;4.38;2.03;;;;;;;16.04;79.33;100141.66;7394649;19;19927;-62
2023/09/22 10:06:35;;;;;;;3.63;1.95;;;;;;;16.02;79.77;100138.31;7393964;19;19933;-63
2023/09/22 10:09:09;;;;;;;3.17;1.90;;;;;;;15.97;79.83;100138.16;7399317;19;20316;-63
2023/09/22 10:11:41;;;;;;;6.95;1.98;;;;;;;15.88;80.04;100136.84;7398447;19;20350;-63
2023/09/22 10:14:10;;;;;;;7.20;2.25;;;;;;;15.79;79.86;100136.31;7398586;19;20299;-63
2023/09/22 10:16:39;;;;;;;2.72;2.28;;;;;;;15.77;80.75;100149.31;7399919;19;19934;-65
2023/09/22 10:19:08;;;;;;;5.55;2.22;;;;;;;15.73;81.02;100141.84;7398748;19;19974;-64
2023/09/22 10:21:45;;;;;;;3.83;1.92;;;;;;;15.67;80.25;100132.72;7398588;19;19919;-63
2023/09/22 10:24:23;;;;;;;5.00;1.45;;;;;;;15.63;78.61;100136.94;7400859;19;20545;-63
2023/09/22 10:27:16;;;;;;;3.95;1.95;;;;;;;15.62;78.15;100127.13;7399594;19;20373;-63
2023/09/22 10:29:51;;;;;;;1.98;1.25;;;;;;;15.67;78.96;100131.88;7397847;19;19944;-63
2023/09/22 10:32:26;;;;;;;3.88;0.93;;;;;;;15.69;76.87;100130.63;7397087;19;20246;-63
2023/09/22 10:34:56;;;;;;;2.65;0.90;;;;;;;15.85;76.31;100134.59;7397272;19;19918;-64
2023/09/22 10:37:26;;;;;;;1.13;0.73;;;;;;;16.21;74.46;100125.53;7397651;19;19962;-64
2023/09/22 10:39:56;;;;;;;1.40;0.70;;;;;;;16.57;72.56;100124.50;7398086;19;20614;-63
2023/09/22 10:42:29;;;;;;;2.13;0.85;;;;;;;16.90;69.68;100126.72;7399679;19;19926;-63
2023/09/22 10:45:00;;;;;;;3.30;0.90;;;;;;;17.19;71.88;100121.16;7397477;19;19922;-63
2023/09/22 10:47:39;;;;;;;0.93;0.80;;;;;;;17.34;71.41;100128.00;7397393;19;19918;-63
2023/09/22 10:50:19;;;;;;;3.65;0.80;;;;;;;17.18;69.20;100135.81;7398825;19;19919;-64
2023/09/22 10:52:56;;;;;;;3.72;1.00;;;;;;;17.42;68.99;100124.91;7399909;19;19982;-62
2023/09/22 10:55:30;;;;;;;1.48;0.70;;;;;;;17.46;67.82;100142.41;7396676;19;20421;-62
2023/09/22 10:58:04;;;;;;;5.72;1.55;;;;;;;17.32;67.64;100128.22;7397876;19;19926;-62
2023/09/22 11:00:35;;;;;;;3.70;1.25;;;;;;;17.47;68.42;100133.19;7396905;19;19934;-62
2023/09/22 11:03:08;;;;;;;6.40;2.60;;;;;;;17.61;67.93;100127.25;7395344;19;19947;-62
2023/09/22 11:05:37;;;;;;;3.33;1.58;;;;;;;17.86;67.15;100126.94;7395821;19;19947;-62
2023/09/22 11:08:26;;;;;;;1.40;0.60;;;;;;;18.10;66.06;100120.31;7397164;19;20256;-63
2023/09/22 11:10:56;;;;;;;3.05;1.10;;;;;;;18.01;65.69;100129.13;7398406;19;19914;-61
2023/09/22 11:13:30;;;;;;;2.83;0.90;;;;;;;17.83;63.65;100132.88;7398310;19;19930;-61
2023/09/22 11:16:01;;;;;;;4.60;0.93;;;;;;;17.64;66.83;100132.25;7397993;19;19976;-62
2023/09/22 11:18:32;;;;;;;3.83;1.75;;;;;;;17.45;67.45;100147.03;7397891;19;19926;-62
2023/09/22 11:21:02;;;;;;;3.35;1.40;;;;;;;17.26;67.25;100156.41;7398518;19;19922;-62
2023/09/22 11:23:31;;;;;;;2.67;1.08;;;;;;;17.55;67.20;100152.72;7396744;19;19918;-63
2023/09/22 11:26:02;;;;;;;4.38;1.00;;;;;;;17.76;66.69;100153.16;7395945;19;19926;-62
2023/09/22 11:28:34;;;;;;;4.82;2.05;;;;;;;17.62;66.72;100153.44;7397279;19;19939;-62
2023/09/22 11:31:14;;;;;;;3.83;1.50;;;;;;;17.43;67.19;100159.25;7398455;19;19979;-62
2023/09/22 11:33:43;;;;;;;2.97;0.80;;;;;;;17.27;67.23;100165.41;7393660;19;19945;-62
2023/09/22 11:36:13;;;;;;;0.80;0.50;;;;;;;17.16;68.21;100161.63;7394433;19;19926;-63
2023/09/22 11:38:45;;;;;;;1.67;0.90;;;;;;;17.13;67.92;100164.81;7398381;19;19955;-63
2023/09/22 11:41:16;;;;;;;2.08;1.08;;;;;;;17.36;66.79;100170.25;7396061;19;19932;-63
2023/09/22 11:43:49;;;;;;;3.58;1.00;;;;;;;17.69;65.31;100173.19;7397497;19;19922;-62
2023/09/22 11:46:25;;;;;;;2.03;1.05;;;;;;;18.03;66.26;100176.06;7395817;19;20010;-63
2023/09/22 11:48:55;;;;;;;1.58;0.80;;;;;;;18.36;64.39;100175.31;7397707;19;19918;-63
2023/09/22 11:51:24;;;;;;;3.80;1.20;;;;;;;18.60;64.22;100165.97;7396839;19;19914;-63
2023/09/22 11:53:53;;;;;;;1.85;0.93;;;;;;;18.79;62.36;100169.28;7395974;19;19918;-63
2023/09/22 11:56:21;;;;;;;3.85;0.70;;;;;;;18.87;62.20;100175.16;7396734;19;19929;-62
2023/09/22 11:58:52;;;;;;;4.05;0.70;;;;;;;18.92;60.54;100169.78;7404481;19;19919;-63